Home > Products > Valid Products > TAF

000
FTUS43 KEAX 232300
TAFSTJ
TAF
KSTJ 232320Z 2400/2424 13010KT P6SM VCSH BKN050
     FM241200 17012KT P6SM BKN100=



000
FTUS43 KEAX 232300
TAFMKC
TAF
KMKC 232320Z 2400/2424 14012KT P6SM BKN150
     FM240130 16012KT P6SM VCTS BKN050CB
     FM240330 17012KT P6SM VCSH BKN050
     FM240900 17012KT P6SM BKN100=



000
FTUS43 KEAX 232300
TAFMCI
TAF
KMCI 232320Z 2400/2424 13013KT P6SM SCT090 BKN150
     FM240100 16012KT P6SM VCTS BKN050CB
     FM240300 17012KT P6SM VCSH BKN050
     FM240900 17012KT P6SM BKN100=



000
FTUS43 KEAX 232100 AAA
TAFSTJ
TAF AMD
KSTJ 232102Z 2321/2418 16012KT P6SM VCSH BKN050
     FM241200 17012KT P6SM BKN100=



000
FTUS43 KEAX 231700
TAFSTJ
TAF
KSTJ 231720Z 2318/2418 17013KT P6SM BKN100
     FM240000 16010KT P6SM VCSH BKN050
     FM241200 17012KT P6SM BKN100=



000
FTUS43 KEAX 231700
TAFMKC
TAF
KMKC 231720Z 2318/2418 17012KT P6SM BKN100
     FM240200 16010KT P6SM VCSH BKN060
     FM241200 17012KT P6SM BKN100=



000
FTUS43 KEAX 231700
TAFMCI
TAF
KMCI 231720Z 2318/2418 17013KT P6SM BKN100
     FM240200 16010KT P6SM VCSH BKN060
     FM241200 17012KT P6SM BKN100=



000
FTUS43 KEAX 231100
TAFMCI
TAF
KMCI 231127Z 2312/2412 16013KT P6SM BKN100
     FM240300 16010KT P6SM VCSH BKN060=



000
FTUS43 KEAX 231100
TAFSTJ
TAF
KSTJ 231127Z 2312/2412 17011KT P6SM BKN100
     FM240000 16010KT P6SM VCSH BKN050=



000
FTUS43 KEAX 231100
TAFMKC
TAF
KMKC 231127Z 2312/2412 17012KT P6SM BKN100
     FM240300 16010KT P6SM VCSH BKN060=



000
FTUS43 KEAX 230500
TAFSTJ
TAF
KSTJ 230520Z 2306/2406 15005KT P6SM SCT200
     FM231500 16011KT P6SM SCT080 OVC100
     FM240100 14009KT P6SM VCSH SCT040 BKN070=



000
FTUS43 KEAX 230500
TAFMKC
TAF
KMKC 230520Z 2306/2406 15005KT P6SM SCT200
     FM231500 16011KT P6SM SCT080 OVC100
     FM240300 14009KT P6SM VCSH SCT040 BKN070=



000
FTUS43 KEAX 230500
TAFMCI
TAF
KMCI 230520Z 2306/2406 15005KT P6SM SCT200
     FM231500 16011KT P6SM SCT080 OVC100
     FM240300 14009KT P6SM VCSH SCT040 BKN070=



000
FTUS43 KEAX 222300
TAFMKC
TAF
KMKC 222320Z 2300/2324 15005KT P6SM SCT200
     FM231500 16011KT P6SM OVC100=



000
FTUS43 KEAX 222300
TAFMCI
TAF
KMCI 222320Z 2300/2324 15005KT P6SM SCT200
     FM231500 16011KT P6SM OVC100=



000
FTUS43 KEAX 222300
TAFSTJ
TAF
KSTJ 222320Z 2300/2324 16005KT P6SM SCT200
     FM231500 16011KT P6SM OVC100=



000
FTUS43 KEAX 221700
TAFMCI
TAF
KMCI 221720Z 2218/2318 15005KT P6SM SCT200
     FM231500 16009KT P6SM BKN200=



000
FTUS43 KEAX 221700
TAFMKC
TAF
KMKC 221720Z 2218/2318 15005KT P6SM SCT200
     FM231600 16006KT P6SM BKN200=



000
FTUS43 KEAX 221700
TAFSTJ
TAF
KSTJ 221720Z 2218/2318 16005KT P6SM SCT200
     FM231600 16008KT P6SM BKN200=



000
FTUS43 KEAX 221100
TAFMKC
TAF
KMKC 221132Z 2212/2312 01005KT P6SM SKC
     FM221300 VRB06KT P6SM FEW200
     FM221700 14005KT P6SM SCT200=



000
FTUS43 KEAX 221100
TAFSTJ
TAF
KSTJ 221132Z 2212/2312 VRB03KT P6SM SKC
      TEMPO 2212/2213 1/2SM FG VV001
     FM221300 VRB06KT P6SM FEW200
     FM221700 16005KT P6SM SCT200=



000
FTUS43 KEAX 221100
TAFMCI
TAF
KMCI 221132Z 2212/2312 35005KT P6SM SKC
     FM221300 VRB06KT P6SM FEW200
     FM221700 15005KT P6SM SCT200=



000
FTUS43 KEAX 221100 AAC
TAFSTJ
TAF AMD
KSTJ 221113Z 2211/2306 VRB03KT P6SM SKC
      TEMPO 2211/2213 1/2SM FG VV001
     FM221300 VRB06KT P6SM FEW200
     FM221700 16005KT P6SM SCT200=



000
FTUS43 KEAX 221000 AAB
TAFSTJ
TAF AMD
KSTJ 221059Z 2211/2306 VRB03KT P6SM SKC
      TEMPO 2211/2213 1SM BR VV001
     FM221300 VRB06KT P6SM FEW200
     FM221700 16005KT P6SM SCT200=



000
FTUS43 KEAX 221000 AAA
TAFSTJ
TAF AMD
KSTJ 221027Z 2210/2306 VRB03KT P6SM SKC
     FM221300 VRB06KT P6SM FEW200
     FM221700 16005KT P6SM SCT200=



000
FTUS43 KEAX 220500
TAFMKC
TAF
KMKC 220520Z 2206/2306 01005KT P6SM SKC
     FM221300 VRB06KT P6SM FEW200
     FM221700 14005KT P6SM SCT200=



000
FTUS43 KEAX 220500
TAFMCI
TAF
KMCI 220520Z 2206/2306 35005KT P6SM SKC
     FM221300 VRB06KT P6SM FEW200
     FM221700 15005KT P6SM SCT200=



000
FTUS43 KEAX 220500
TAFSTJ
TAF
KSTJ 220520Z 2206/2306 VRB03KT P6SM SKC
      TEMPO 2209/2213 2SM BR SCT008
     FM221300 VRB06KT P6SM FEW200
     FM221700 16005KT P6SM SCT200=



000
FTUS43 KEAX 212300
TAFMKC
TAF
KMKC 212322Z 2200/2224 01005KT P6SM SKC
     FM221300 VRB06KT P6SM SCT200=



000
FTUS43 KEAX 212300
TAFMCI
TAF
KMCI 212322Z 2200/2224 35005KT P6SM SKC
     FM221300 VRB06KT P6SM SCT200=



000
FTUS43 KEAX 212300
TAFSTJ
TAF
KSTJ 212322Z 2200/2224 35005KT P6SM SKC
     FM220600 00000KT P6SM SKC
      TEMPO 2209/2213 2SM BR SCT008
     FM221300 VRB06KT P6SM SCT200=



000
FTUS43 KEAX 211700
TAFMKC
TAF
KMKC 211720Z 2118/2218 35011G18KT P6SM FEW150
     FM220000 02004KT P6SM SKC
     FM221100 VRB02KT P6SM SKC=



000
FTUS43 KEAX 211700
TAFSTJ
TAF
KSTJ 211720Z 2118/2218 34013G20KT P6SM FEW150
     FM220000 01003KT P6SM SKC
     FM220900 VRB02KT P6SM SKC=



000
FTUS43 KEAX 211700
TAFMCI
TAF
KMCI 211720Z 2118/2218 34012G19KT P6SM FEW150
     FM220000 01005KT P6SM SKC
     FM221100 VRB04KT P6SM SKC=



000
FTUS43 KEAX 211100
TAFSTJ
TAF
KSTJ 211122Z 2112/2212 00000KT P6SM SKC
     FM211700 34012G19KT P6SM SKC
     FM220000 VRB03KT P6SM SKC=



000
FTUS43 KEAX 211100
TAFMCI
TAF
KMCI 211122Z 2112/2212 32003KT P6SM SKC
     FM211700 34012G19KT P6SM SKC
     FM220000 VRB04KT P6SM SKC=



000
FTUS43 KEAX 211100
TAFMKC
TAF
KMKC 211122Z 2112/2212 00000KT P6SM SKC
     FM211800 35011G18KT P6SM SKC
     FM220000 VRB03KT P6SM SKC=



000
FTUS43 KEAX 210500
TAFMCI
TAF
KMCI 210520Z 2106/2206 33006KT P6SM SKC
     FM211700 34012G19KT P6SM SKC
     FM220000 VRB04KT P6SM SKC=



000
FTUS43 KEAX 210500
TAFSTJ
TAF
KSTJ 210520Z 2106/2206 33006KT P6SM SKC
     FM211700 34012G19KT P6SM SKC
     FM220000 VRB03KT P6SM SKC=



000
FTUS43 KEAX 210500
TAFMKC
TAF
KMKC 210520Z 2106/2206 34005KT P6SM SKC
     FM211800 35011G18KT P6SM SKC
     FM220000 VRB03KT P6SM SKC=



    US Dept of Commerce
    National Oceanic and Atmospheric Administration
    National Weather Service
    1325 East West Highway
    Silver Spring, MD 20910
    Page Author: NWS Internet Services Team
Disclaimer
Information Quality
Credits
Glossary
Privacy Policy
Freedom of Information Act (FOIA)
About Us
Career Opportunities